sensor_id;sensor_type;location;lat;lon;timestamp;P1;P2;P0
68713;PMS7003;55690;51.566;19.198;2022-10-17T00:01:51;18;15;11
68713;PMS7003;55690;51.566;19.198;2022-10-17T00:05:58;26;24;16
68713;PMS7003;55690;51.566;19.198;2022-10-17T00:10:05;25;23;16
68713;PMS7003;55690;51.566;19.198;2022-10-17T00:14:10;23;20;16
68713;PMS7003;55690;51.566;19.198;2022-10-17T00:18:16;25;22;14
68713;PMS7003;55690;51.566;19.198;2022-10-17T00:22:22;31;27;17
68713;PMS7003;55690;51.566;19.198;2022-10-17T00:26:29;18;18;13
68713;PMS7003;55690;51.566;19.198;2022-10-17T00:30:35;18;18;13
68713;PMS7003;55690;51.566;19.198;2022-10-17T00:34:41;21;15;12
68713;PMS7003;55690;51.566;19.198;2022-10-17T00:38:49;26;18;15
68713;PMS7003;55690;51.566;19.198;2022-10-17T00:42:55;20;14;12
68713;PMS7003;55690;51.566;19.198;2022-10-17T00:47:01;22;20;12
68713;PMS7003;55690;51.566;19.198;2022-10-17T00:51:06;11;9;4
68713;PMS7003;55690;51.566;19.198;2022-10-17T00:59:24;20;18;12
68713;PMS7003;55690;51.566;19.198;2022-10-17T01:03:26;30;23;13
68713;PMS7003;55690;51.566;19.198;2022-10-17T01:07:30;17;15;11
68713;PMS7003;55690;51.566;19.198;2022-10-17T01:45:15;31;24;14
68713;PMS7003;55690;51.566;19.198;2022-10-17T01:49:23;26;24;15
68713;PMS7003;55690;51.566;19.198;2022-10-17T01:53:31;21;18;13
68713;PMS7003;55690;51.566;19.198;2022-10-17T01:57:55;34;24;13
68713;PMS7003;55690;51.566;19.198;2022-10-17T02:01:51;26;20;15
68713;PMS7003;55690;51.566;19.198;2022-10-17T02:05:56;29;21;14
68713;PMS7003;55690;51.566;19.198;2022-10-17T02:09:57;19;18;14
68713;PMS7003;55690;51.566;19.198;2022-10-17T02:31:12;16;16;12
68713;PMS7003;55690;51.566;19.198;2022-10-17T02:35:05;18;17;11
68713;PMS7003;55690;51.566;19.198;2022-10-17T02:39:10;24;20;11
68713;PMS7003;55690;51.566;19.198;2022-10-17T02:43:13;26;18;13
68713;PMS7003;55690;51.566;19.198;2022-10-17T02:47:20;24;21;13
68713;PMS7003;55690;51.566;19.198;2022-10-17T02:55:47;21;20;15
68713;PMS7003;55690;51.566;19.198;2022-10-17T02:59:55;16;15;11
68713;PMS7003;55690;51.566;19.198;2022-10-17T03:04:05;22;11;8
68713;PMS7003;55690;51.566;19.198;2022-10-17T03:08:07;17;13;11
68713;PMS7003;55690;51.566;19.198;2022-10-17T03:12:11;28;23;13
68713;PMS7003;55690;51.566;19.198;2022-10-17T03:16:12;27;16;9
68713;PMS7003;55690;51.566;19.198;2022-10-17T03:20:14;21;18;12
68713;PMS7003;55690;51.566;19.198;2022-10-17T03:24:15;26;18;14
68713;PMS7003;55690;51.566;19.198;2022-10-17T03:28:17;18;18;11
68713;PMS7003;55690;51.566;19.198;2022-10-17T03:32:19;18;18;14
68713;PMS7003;55690;51.566;19.198;2022-10-17T03:36:21;24;20;14
68713;PMS7003;55690;51.566;19.198;2022-10-17T03:40:22;22;18;11
68713;PMS7003;55690;51.566;19.198;2022-10-17T03:44:26;17;17;10
68713;PMS7003;55690;51.566;19.198;2022-10-17T03:48:28;30;15;10
68713;PMS7003;55690;51.566;19.198;2022-10-17T03:52:31;14;10;8
68713;PMS7003;55690;51.566;19.198;2022-10-17T03:56:32;33;20;15
68713;PMS7003;55690;51.566;19.198;2022-10-17T04:00:36;22;15;11
68713;PMS7003;55690;51.566;19.198;2022-10-17T04:04:38;24;22;16
68713;PMS7003;55690;51.566;19.198;2022-10-17T04:08:40;20;16;10
68713;PMS7003;55690;51.566;19.198;2022-10-17T04:12:42;18;15;10
68713;PMS7003;55690;51.566;19.198;2022-10-17T04:16:45;27;15;12
68713;PMS7003;55690;51.566;19.198;2022-10-17T04:20:47;18;18;11
68713;PMS7003;55690;51.566;19.198;2022-10-17T04:24:49;17;17;12
68713;PMS7003;55690;51.566;19.198;2022-10-17T04:28:50;17;17;11
68713;PMS7003;55690;51.566;19.198;2022-10-17T04:32:52;27;21;16
68713;PMS7003;55690;51.566;19.198;2022-10-17T04:36:54;17;12;6
68713;PMS7003;55690;51.566;19.198;2022-10-17T04:40:56;24;14;12
68713;PMS7003;55690;51.566;19.198;2022-10-17T04:45:03;19;14;8
68713;PMS7003;55690;51.566;19.198;2022-10-17T04:49:05;15;13;9
68713;PMS7003;55690;51.566;19.198;2022-10-17T04:53:10;15;14;9
68713;PMS7003;55690;51.566;19.198;2022-10-17T04:57:17;17;17;14
68713;PMS7003;55690;51.566;19.198;2022-10-17T05:01:24;42;29;21
68713;PMS7003;55690;51.566;19.198;2022-10-17T05:09:35;54;29;21
68713;PMS7003;55690;51.566;19.198;2022-10-17T05:13:41;46;29;20
68713;PMS7003;55690;51.566;19.198;2022-10-17T05:17:47;45;34;18
68713;PMS7003;55690;51.566;19.198;2022-10-17T05:21:53;31;22;17
68713;PMS7003;55690;51.566;19.198;2022-10-17T05:25:59;43;28;19
68713;PMS7003;55690;51.566;19.198;2022-10-17T05:30:06;26;22;14
68713;PMS7003;55690;51.566;19.198;2022-10-17T05:38:18;24;21;13
68713;PMS7003;55690;51.566;19.198;2022-10-17T05:50:37;30;21;16
68713;PMS7003;55690;51.566;19.198;2022-10-17T05:54:43;27;23;14
68713;PMS7003;55690;51.566;19.198;2022-10-17T05:58:49;27;18;14
68713;PMS7003;55690;51.566;19.198;2022-10-17T06:02:55;24;19;12
68713;PMS7003;55690;51.566;19.198;2022-10-17T06:07:01;36;27;15
68713;PMS7003;55690;51.566;19.198;2022-10-17T06:11:07;37;32;19
68713;PMS7003;55690;51.566;19.198;2022-10-17T06:15:14;38;27;20
68713;PMS7003;55690;51.566;19.198;2022-10-17T06:19:20;28;23;17
68713;PMS7003;55690;51.566;19.198;2022-10-17T06:23:26;22;22;16
68713;PMS7003;55690;51.566;19.198;2022-10-17T06:27:32;19;17;13
68713;PMS7003;55690;51.566;19.198;2022-10-17T06:31:38;22;18;14
68713;PMS7003;55690;51.566;19.198;2022-10-17T06:35:49;13;11;8
68713;PMS7003;55690;51.566;19.198;2022-10-17T06:39:52;19;18;12
68713;PMS7003;55690;51.566;19.198;2022-10-17T06:43:57;24;18;14
68713;PMS7003;55690;51.566;19.198;2022-10-17T06:48:03;23;19;12
68713;PMS7003;55690;51.566;19.198;2022-10-17T06:56:19;32;21;9
68713;PMS7003;55690;51.566;19.198;2022-10-17T07:00:21;24;17;12
68713;PMS7003;55690;51.566;19.198;2022-10-17T07:08:34;18;18;12
68713;PMS7003;55690;51.566;19.198;2022-10-17T07:12:40;12;12;9
68713;PMS7003;55690;51.566;19.198;2022-10-17T07:16:46;12;12;9
68713;PMS7003;55690;51.566;19.198;2022-10-17T07:20:53;23;16;12
68713;PMS7003;55690;51.566;19.198;2022-10-17T07:24:58;21;14;9
68713;PMS7003;55690;51.566;19.198;2022-10-17T07:29:04;28;17;14
68713;PMS7003;55690;51.566;19.198;2022-10-17T07:33:11;16;15;11
68713;PMS7003;55690;51.566;19.198;2022-10-17T07:37:17;18;13;10
68713;PMS7003;55690;51.566;19.198;2022-10-17T07:41:23;19;14;11
68713;PMS7003;55690;51.566;19.198;2022-10-17T07:45:29;18;15;12
68713;PMS7003;55690;51.566;19.198;2022-10-17T07:49:35;26;20;16
68713;PMS7003;55690;51.566;19.198;2022-10-17T07:53:43;17;13;8
68713;PMS7003;55690;51.566;19.198;2022-10-17T07:57:48;28;13;9
68713;PMS7003;55690;51.566;19.198;2022-10-17T08:01:55;22;13;11
68713;PMS7003;55690;51.566;19.198;2022-10-17T08:06:00;26;17;12
68713;PMS7003;55690;51.566;19.198;2022-10-17T08:10:07;17;15;12
68713;PMS7003;55690;51.566;19.198;2022-10-17T08:14:12;19;19;15
68713;PMS7003;55690;51.566;19.198;2022-10-17T08:18:18;15;15;11
68713;PMS7003;55690;51.566;19.198;2022-10-17T08:22:25;20;19;14
68713;PMS7003;55690;51.566;19.198;2022-10-17T08:26:31;21;16;13
68713;PMS7003;55690;51.566;19.198;2022-10-17T08:30:37;17;17;13
68713;PMS7003;55690;51.566;19.198;2022-10-17T08:34:43;22;20;16
68713;PMS7003;55690;51.566;19.198;2022-10-17T08:38:49;30;18;10
68713;PMS7003;55690;51.566;19.198;2022-10-17T08:47:09;14;14;11
68713;PMS7003;55690;51.566;19.198;2022-10-17T08:51:17;17;14;10
68713;PMS7003;55690;51.566;19.198;2022-10-17T08:55:31;18;13;12
68713;PMS7003;55690;51.566;19.198;2022-10-17T08:59:36;18;12;10
68713;PMS7003;55690;51.566;19.198;2022-10-17T09:20:38;16;16;12
68713;PMS7003;55690;51.566;19.198;2022-10-17T09:28:58;20;19;14
68713;PMS7003;55690;51.566;19.198;2022-10-17T09:37:04;24;21;15
68713;PMS7003;55690;51.566;19.198;2022-10-17T09:45:26;19;16;13
68713;PMS7003;55690;51.566;19.198;2022-10-17T09:53:44;21;20;14
68713;PMS7003;55690;51.566;19.198;2022-10-17T10:02:09;21;20;15
68713;PMS7003;55690;51.566;19.198;2022-10-17T10:06:19;16;13;9
68713;PMS7003;55690;51.566;19.198;2022-10-17T10:10:26;18;12;10
68713;PMS7003;55690;51.566;19.198;2022-10-17T10:14:30;16;14;10
68713;PMS7003;55690;51.566;19.198;2022-10-17T10:18:34;15;15;11
68713;PMS7003;55690;51.566;19.198;2022-10-17T10:22:36;24;16;15
68713;PMS7003;55690;51.566;19.198;2022-10-17T10:26:39;2;2;2
68713;PMS7003;55690;51.566;19.198;2022-10-17T10:30:46;17;17;12
68713;PMS7003;55690;51.566;19.198;2022-10-17T10:34:54;14;14;10
68713;PMS7003;55690;51.566;19.198;2022-10-17T10:43:05;14;13;10
68713;PMS7003;55690;51.566;19.198;2022-10-17T10:51:18;20;12;9
68713;PMS7003;55690;51.566;19.198;2022-10-17T10:55:37;29;16;13
68713;PMS7003;55690;51.566;19.198;2022-10-17T10:59:56;15;15;10
68713;PMS7003;55690;51.566;19.198;2022-10-17T11:20:54;19;15;12
68713;PMS7003;55690;51.566;19.198;2022-10-17T11:29:14;15;15;12
68713;PMS7003;55690;51.566;19.198;2022-10-17T11:33:18;37;20;12
68713;PMS7003;55690;51.566;19.198;2022-10-17T11:41:34;14;14;11
68713;PMS7003;55690;51.566;19.198;2022-10-17T11:50:02;13;10;6
68713;PMS7003;55690;51.566;19.198;2022-10-17T12:19:34;13;13;10
68713;PMS7003;55690;51.566;19.198;2022-10-17T12:23:37;15;10;9
68713;PMS7003;55690;51.566;19.198;2022-10-17T12:27:43;21;13;11
68713;PMS7003;55690;51.566;19.198;2022-10-17T12:31:47;20;17;12
68713;PMS7003;55690;51.566;19.198;2022-10-17T12:35:49;13;13;11
68713;PMS7003;55690;51.566;19.198;2022-10-17T12:39:52;18;16;12
68713;PMS7003;55690;51.566;19.198;2022-10-17T12:43:54;15;11;9
68713;PMS7003;55690;51.566;19.198;2022-10-17T12:47:57;15;15;12
68713;PMS7003;55690;51.566;19.198;2022-10-17T12:56:13;17;17;12
68713;PMS7003;55690;51.566;19.198;2022-10-17T13:04:34;16;16;12
68713;PMS7003;55690;51.566;19.198;2022-10-17T13:08:38;10;10;8
68713;PMS7003;55690;51.566;19.198;2022-10-17T13:12:46;16;13;10
68713;PMS7003;55690;51.566;19.198;2022-10-17T13:16:53;22;16;12
68713;PMS7003;55690;51.566;19.198;2022-10-17T13:21:01;17;12;10
68713;PMS7003;55690;51.566;19.198;2022-10-17T13:25:14;14;14;11
68713;PMS7003;55690;51.566;19.198;2022-10-17T13:29:17;18;16;12
68713;PMS7003;55690;51.566;19.198;2022-10-17T13:33:32;16;14;10
68713;PMS7003;55690;51.566;19.198;2022-10-17T13:37:33;18;12;10
68713;PMS7003;55690;51.566;19.198;2022-10-17T13:41:35;19;17;13
68713;PMS7003;55690;51.566;19.198;2022-10-17T13:45:38;21;15;10
68713;PMS7003;55690;51.566;19.198;2022-10-17T13:49:45;13;12;9
68713;PMS7003;55690;51.566;19.198;2022-10-17T13:53:47;11;10;9
68713;PMS7003;55690;51.566;19.198;2022-10-17T13:57:48;21;14;9
68713;PMS7003;55690;51.566;19.198;2022-10-17T14:01:52;20;16;14
68713;PMS7003;55690;51.566;19.198;2022-10-17T14:14:24;18;14;11
68713;PMS7003;55690;51.566;19.198;2022-10-17T14:18:28;16;14;10
68713;PMS7003;55690;51.566;19.198;2022-10-17T14:22:34;18;16;12
68713;PMS7003;55690;51.566;19.198;2022-10-17T14:26:45;20;13;12
68713;PMS7003;55690;51.566;19.198;2022-10-17T14:30:50;20;14;12
68713;PMS7003;55690;51.566;19.198;2022-10-17T14:34:54;19;16;12
68713;PMS7003;55690;51.566;19.198;2022-10-17T14:38:58;16;16;12
68713;PMS7003;55690;51.566;19.198;2022-10-17T14:43:02;14;14;10
68713;PMS7003;55690;51.566;19.198;2022-10-17T14:47:06;6;6;4
68713;PMS7003;55690;51.566;19.198;2022-10-17T14:51:14;19;19;12
68713;PMS7003;55690;51.566;19.198;2022-10-17T14:55:22;15;15;11
68713;PMS7003;55690;51.566;19.198;2022-10-17T14:59:25;12;10;9
68713;PMS7003;55690;51.566;19.198;2022-10-17T15:03:27;19;13;10
68713;PMS7003;55690;51.566;19.198;2022-10-17T15:07:29;17;11;9
68713;PMS7003;55690;51.566;19.198;2022-10-17T15:11:31;19;14;12
68713;PMS7003;55690;51.566;19.198;2022-10-17T15:15:33;19;14;11
68713;PMS7003;55690;51.566;19.198;2022-10-17T15:19:36;14;13;9
68713;PMS7003;55690;51.566;19.198;2022-10-17T15:23:38;14;14;10
68713;PMS7003;55690;51.566;19.198;2022-10-17T15:27:41;15;13;10
68713;PMS7003;55690;51.566;19.198;2022-10-17T15:31:43;13;12;9
68713;PMS7003;55690;51.566;19.198;2022-10-17T15:35:45;17;13;10
68713;PMS7003;55690;51.566;19.198;2022-10-17T15:39:51;13;12;7
68713;PMS7003;55690;51.566;19.198;2022-10-17T15:43:54;15;13;9
68713;PMS7003;55690;51.566;19.198;2022-10-17T15:47:58;12;12;10
68713;PMS7003;55690;51.566;19.198;2022-10-17T15:53:41;0;0;0
68713;PMS7003;55690;51.566;19.198;2022-10-17T15:57:43;23;15;10
68713;PMS7003;55690;51.566;19.198;2022-10-17T16:01:46;25;20;11
68713;PMS7003;55690;51.566;19.198;2022-10-17T16:05:48;16;15;12
68713;PMS7003;55690;51.566;19.198;2022-10-17T16:09:50;12;12;8
68713;PMS7003;55690;51.566;19.198;2022-10-17T16:13:52;12;12;10
68713;PMS7003;55690;51.566;19.198;2022-10-17T16:17:56;28;20;15
68713;PMS7003;55690;51.566;19.198;2022-10-17T16:21:59;52;39;27
68713;PMS7003;55690;51.566;19.198;2022-10-17T16:26:05;25;21;15
68713;PMS7003;55690;51.566;19.198;2022-10-17T16:30:08;19;18;15
68713;PMS7003;55690;51.566;19.198;2022-10-17T16:38:15;16;14;11
68713;PMS7003;55690;51.566;19.198;2022-10-17T16:42:17;26;16;10
68713;PMS7003;55690;51.566;19.198;2022-10-17T16:50:24;18;14;11
68713;PMS7003;55690;51.566;19.198;2022-10-17T16:54:26;17;8;7
68713;PMS7003;55690;51.566;19.198;2022-10-17T16:58:27;20;17;11
68713;PMS7003;55690;51.566;19.198;2022-10-17T17:02:32;14;12;9
68713;PMS7003;55690;51.566;19.198;2022-10-17T17:06:35;17;13;12
68713;PMS7003;55690;51.566;19.198;2022-10-17T17:14:41;21;16;12
68713;PMS7003;55690;51.566;19.198;2022-10-17T17:18:43;25;18;15
68713;PMS7003;55690;51.566;19.198;2022-10-17T17:22:46;24;17;12
68713;PMS7003;55690;51.566;19.198;2022-10-17T17:26:52;25;12;9
68713;PMS7003;55690;51.566;19.198;2022-10-17T17:30:55;21;15;12
68713;PMS7003;55690;51.566;19.198;2022-10-17T17:34:57;8;8;5
68713;PMS7003;55690;51.566;19.198;2022-10-17T17:39:00;14;14;11
68713;PMS7003;55690;51.566;19.198;2022-10-17T17:43:04;21;13;11
68713;PMS7003;55690;51.566;19.198;2022-10-17T17:47:06;15;15;11
68713;PMS7003;55690;51.566;19.198;2022-10-17T17:51:08;16;11;8
68713;PMS7003;55690;51.566;19.198;2022-10-17T17:55:11;16;15;14
68713;PMS7003;55690;51.566;19.198;2022-10-17T18:03:17;25;14;11
68713;PMS7003;55690;51.566;19.198;2022-10-17T18:07:19;14;11;8
68713;PMS7003;55690;51.566;19.198;2022-10-17T18:19:35;10;6;5
68713;PMS7003;55690;51.566;19.198;2022-10-17T18:27:41;16;9;8
68713;PMS7003;55690;51.566;19.198;2022-10-17T18:31:43;17;9;7
68713;PMS7003;55690;51.566;19.198;2022-10-17T18:39:49;9;9;8
68713;PMS7003;55690;51.566;19.198;2022-10-17T18:43:56;10;9;6
68713;PMS7003;55690;51.566;19.198;2022-10-17T18:47:58;10;9;5
68713;PMS7003;55690;51.566;19.198;2022-10-17T18:52:00;12;12;9
68713;PMS7003;55690;51.566;19.198;2022-10-17T19:04:14;24;15;11
68713;PMS7003;55690;51.566;19.198;2022-10-17T19:16:30;9;8;5
68713;PMS7003;55690;51.566;19.198;2022-10-17T19:24:38;10;8;8
68713;PMS7003;55690;51.566;19.198;2022-10-17T19:28:44;26;13;11
68713;PMS7003;55690;51.566;19.198;2022-10-17T19:36:52;12;10;7
68713;PMS7003;55690;51.566;19.198;2022-10-17T19:40:58;11;11;10
68713;PMS7003;55690;51.566;19.198;2022-10-17T19:45:00;17;11;9
68713;PMS7003;55690;51.566;19.198;2022-10-17T19:49:02;13;12;9
68713;PMS7003;55690;51.566;19.198;2022-10-17T19:53:08;7;7;5
68713;PMS7003;55690;51.566;19.198;2022-10-17T19:57:09;15;12;9
68713;PMS7003;55690;51.566;19.198;2022-10-17T20:01:12;8;8;6
68713;PMS7003;55690;51.566;19.198;2022-10-17T20:05:15;11;9;6
68713;PMS7003;55690;51.566;19.198;2022-10-17T20:09:16;7;7;7
68713;PMS7003;55690;51.566;19.198;2022-10-17T20:13:18;5;5;5
68713;PMS7003;55690;51.566;19.198;2022-10-17T20:17:23;10;10;8
68713;PMS7003;55690;51.566;19.198;2022-10-17T20:21:25;8;8;6
68713;PMS7003;55690;51.566;19.198;2022-10-17T20:25:34;7;7;7
68713;PMS7003;55690;51.566;19.198;2022-10-17T20:29:38;14;11;8
68713;PMS7003;55690;51.566;19.198;2022-10-17T20:33:39;21;10;8
68713;PMS7003;55690;51.566;19.198;2022-10-17T20:37:44;11;9;7
68713;PMS7003;55690;51.566;19.198;2022-10-17T20:41:47;8;8;6
68713;PMS7003;55690;51.566;19.198;2022-10-17T20:45:48;14;7;6
68713;PMS7003;55690;51.566;19.198;2022-10-17T20:49:50;7;6;5
68713;PMS7003;55690;51.566;19.198;2022-10-17T20:53:51;12;9;7
68713;PMS7003;55690;51.566;19.198;2022-10-17T20:57:53;13;12;9
68713;PMS7003;55690;51.566;19.198;2022-10-17T21:01:55;9;9;7
68713;PMS7003;55690;51.566;19.198;2022-10-17T21:05:56;10;10;8
68713;PMS7003;55690;51.566;19.198;2022-10-17T21:09:58;9;6;5
68713;PMS7003;55690;51.566;19.198;2022-10-17T21:14:03;10;7;6
68713;PMS7003;55690;51.566;19.198;2022-10-17T21:22:11;5;5;4
68713;PMS7003;55690;51.566;19.198;2022-10-17T21:26:12;18;7;6
68713;PMS7003;55690;51.566;19.198;2022-10-17T21:30:17;7;6;5
68713;PMS7003;55690;51.566;19.198;2022-10-17T21:34:23;10;7;6
68713;PMS7003;55690;51.566;19.198;2022-10-17T21:38:29;8;8;5
68713;PMS7003;55690;51.566;19.198;2022-10-17T21:42:35;9;8;6
68713;PMS7003;55690;51.566;19.198;2022-10-17T21:46:42;8;8;6
68713;PMS7003;55690;51.566;19.198;2022-10-17T21:50:48;11;5;4
68713;PMS7003;55690;51.566;19.198;2022-10-17T21:55:00;4;4;4
68713;PMS7003;55690;51.566;19.198;2022-10-17T21:59:02;8;8;6
68713;PMS7003;55690;51.566;19.198;2022-10-17T22:03:07;9;6;5
68713;PMS7003;55690;51.566;19.198;2022-10-17T22:07:12;7;7;6
68713;PMS7003;55690;51.566;19.198;2022-10-17T22:11:20;3;3;3
68713;PMS7003;55690;51.566;19.198;2022-10-17T22:15:25;7;7;5
68713;PMS7003;55690;51.566;19.198;2022-10-17T22:19:31;14;7;6
68713;PMS7003;55690;51.566;19.198;2022-10-17T22:23:38;9;8;8
68713;PMS7003;55690;51.566;19.198;2022-10-17T22:27:43;3;3;3
68713;PMS7003;55690;51.566;19.198;2022-10-17T22:31:50;6;6;4
68713;PMS7003;55690;51.566;19.198;2022-10-17T22:35:56;8;5;5
68713;PMS7003;55690;51.566;19.198;2022-10-17T22:40:02;7;5;5
68713;PMS7003;55690;51.566;19.198;2022-10-17T22:44:08;12;6;6
68713;PMS7003;55690;51.566;19.198;2022-10-17T22:48:14;5;5;4
68713;PMS7003;55690;51.566;19.198;2022-10-17T22:52:20;6;5;4
68713;PMS7003;55690;51.566;19.198;2022-10-17T22:56:27;8;4;4
68713;PMS7003;55690;51.566;19.198;2022-10-17T23:00:33;7;4;3
68713;PMS7003;55690;51.566;19.198;2022-10-17T23:04:40;4;4;3
68713;PMS7003;55690;51.566;19.198;2022-10-17T23:08:46;8;6;5
68713;PMS7003;55690;51.566;19.198;2022-10-17T23:12:52;9;5;4
68713;PMS7003;55690;51.566;19.198;2022-10-17T23:16:58;6;6;4
68713;PMS7003;55690;51.566;19.198;2022-10-17T23:21:05;6;6;4
68713;PMS7003;55690;51.566;19.198;2022-10-17T23:25:11;5;5;4
68713;PMS7003;55690;51.566;19.198;2022-10-17T23:29:17;5;3;3
68713;PMS7003;55690;51.566;19.198;2022-10-17T23:33:23;9;9;7
68713;PMS7003;55690;51.566;19.198;2022-10-17T23:37:29;6;6;6
68713;PMS7003;55690;51.566;19.198;2022-10-17T23:41:35;6;4;4
68713;PMS7003;55690;51.566;19.198;2022-10-17T23:45:41;5;5;4
68713;PMS7003;55690;51.566;19.198;2022-10-17T23:49:48;8;8;6
68713;PMS7003;55690;51.566;19.198;2022-10-17T23:53:54;9;9;8
68713;PMS7003;55690;51.566;19.198;2022-10-17T23:58:00;5;5;4
